Port Angeles, WA

8:26 AM PDT on October 23, 2014 (GMT -0700)
Lake Dawn | Change Station
CLOSE
Current Station
Personal Weather Station
Location: Port Angeles, WA
Elevation: 1864 ft
Nearby Weather Stations
Active Advisory: Flood Warning Active Notice: Record Report

Elev 1864 ft 48.04 °N, 123.43 °W | Updated 11 minutes ago

Rain
Rain
44.1 °F
Feels Like 44 °F
N
0.7
Wind Variable Wind from North
Gusts 4.5 mph

Today
High -- | Low -- °F
--% Chance of Precip.
Yesterday
High -- | Low -- °F
Precip. -- in
7:45 AM 6:10 PM
Waning Crescent, 0% visible
Pressure 29.70 in
Visibility 10.0 miles
Clouds Few 900 ft
Overcast 6000 ft
Windchill 44 °F
Dew Point 44 °F
Humidity 99%
Rainfall 0.27 in
Snow Depth Not available.
UV 0 out of 12
Pollen .40 out of 12
PM2.5 Good
Flu Activity Sporadic
SPECI KFHR 231517Z AUTO 14007KT 10SM -RA FEW009 OVC060 11/10 A2970 RMK AO2 P0000 T01060100

More Conditions Fewer Conditions

Pressure 29.70 in
Visibility 10.0 miles
Clouds Few 900 ft
Overcast 6000 ft
Windchill 44 °F
Dew Point 44 °F
Humidity 99%
Rainfall 0.27 in
Snow Depth Not available.
UV 0 out of 12
Pollen .40 out of 12
PM2.5 Good
Flu Activity Sporadic
SPECI KFHR 231517Z AUTO 14007KT 10SM -RA FEW009 OVC060 11/10 A2970 RMK AO2 P0000 T01060100

More Conditions Fewer Conditions

10-Day Weather Forecast

Almanac

Astronomy

Oct. 23, 2014 Rise Set
Actual Time 7:45 AM PDT 6:10 PM PDT
Civil Twilight 7:13 AM PDT 6:42 PM PDT
Nautical Twilight 6:37 AM PDT 7:18 PM PDT
Astronomical Twilight 6:01 AM PDT 7:54 PM PDT
Moon 7:29 AM PDT 6:14 PM PDT
Length of Visible Light 11h 28m
Length of Day
10h 24m
Tomorrow will be 3m 17s shorter.
Waning Crescent, 0% of the Moon is Illuminated
Today
Waning Crescent
Oct 23
New
Oct 30
First Quarter
Nov 6
Full
Nov 14
Last Quarter

Today's Extremes

State Highs State Lows

Community

WunderPhotos

Upload Photos

1,764,284 photos uploaded!

Nearby

Air Quality

  Air Quality AQ Index Pollutant
Yesterday Good
PM2.5
Current Good
PM2.5

Snow Depth

Station Depth Elevation
Dungeness 0 in 4100 ft
Alpine Meadows 0 in 3500 ft
Elbow Lake 0 in 3200 ft
Mf Nooksack 0 in 4980 ft
Skookum Creek 0 in 3920 ft

Earthquake Activity

City Distance Mag. Time & Date
No recent earthquake activity has been reported nearby.
Minimum magnitude displayed is 2.5.

Coastal Water Temperatures

Place Temperature
Port Angeles, WA 57.0 °F
Friday Harbor, WA 51.1 °F
Port Townsend, WA 53.1 °F
La Push, WA 52.0 °F

Nearby Weather Stations